createdAt,value
2022-11-08T00:00:44.865Z,19.80
2022-11-08T00:03:13.025Z,20.30
2022-11-08T00:06:00.175Z,19.80
2022-11-08T00:08:46.862Z,21.40
2022-11-08T00:11:33.524Z,20.80
2022-11-08T00:14:01.746Z,21.20
2022-11-08T00:16:29.944Z,21.90
2022-11-08T00:18:58.146Z,20.10
2022-11-08T00:21:26.682Z,19.90
2022-11-08T00:23:54.644Z,20.40
2022-11-08T00:26:22.695Z,20.60
2022-11-08T00:28:50.879Z,20.10
2022-11-08T00:31:18.954Z,21.90
2022-11-08T00:33:47.023Z,20.00
2022-11-08T00:36:15.045Z,19.90
2022-11-08T00:38:44.100Z,19.40
2022-11-08T00:41:12.539Z,21.00
2022-11-08T00:43:40.941Z,19.40
2022-11-08T00:46:09.423Z,18.70
2022-11-08T00:48:37.698Z,18.90
2022-11-08T00:51:07.970Z,18.60
2022-11-08T00:53:40.278Z,18.20
2022-11-08T00:56:12.163Z,18.60
2022-11-08T00:58:41.786Z,18.00
2022-11-08T01:01:12.525Z,19.30
2022-11-08T01:03:40.659Z,17.60
2022-11-08T01:06:10.685Z,17.40
2022-11-08T01:08:40.559Z,17.50
2022-11-08T01:11:12.738Z,18.50
2022-11-08T01:13:40.726Z,17.40
2022-11-08T01:16:14.575Z,18.30
2022-11-08T01:18:43.713Z,17.30
2022-11-08T01:21:12.594Z,17.90
2022-11-08T01:23:41.483Z,18.20
2022-11-08T01:26:15.589Z,17.50
2022-11-08T01:28:43.980Z,18.10
2022-11-08T01:31:15.651Z,17.20
2022-11-08T01:33:49.876Z,18.00
2022-11-08T01:36:22.234Z,17.60
2022-11-08T01:38:50.795Z,16.80
2022-11-08T01:41:21.752Z,17.50
2022-11-08T01:43:52.078Z,17.40
2022-11-08T01:46:20.205Z,18.50
2022-11-08T01:48:56.722Z,18.80
2022-11-08T01:51:32.716Z,19.30
2022-11-08T01:54:05.151Z,20.40
2022-11-08T01:56:33.618Z,20.50
2022-11-08T01:59:06.708Z,19.50
2022-11-08T02:01:35.277Z,24.20
2022-11-08T02:04:04.687Z,23.00
2022-11-08T02:06:35.536Z,26.00
2022-11-08T02:09:07.391Z,22.40
2022-11-08T02:11:36.717Z,19.40
2022-11-08T02:14:05.381Z,21.50
2022-11-08T02:16:34.827Z,22.50
2022-11-08T02:19:03.872Z,24.80
2022-11-08T02:21:49.955Z,20.30
2022-11-08T02:24:18.345Z,21.30
2022-11-08T02:26:47.472Z,22.70
2022-11-08T02:29:22.985Z,19.20
2022-11-08T02:31:51.054Z,19.60
2022-11-08T02:34:22.927Z,20.60
2022-11-08T02:36:51.090Z,21.20
2022-11-08T02:39:19.467Z,20.90
2022-11-08T02:41:47.534Z,19.80
2022-11-08T02:44:15.921Z,20.20
2022-11-08T02:46:43.912Z,21.10
2022-11-08T02:49:12.015Z,20.20
2022-11-08T02:51:40.021Z,20.80
2022-11-08T02:54:08.029Z,20.90
2022-11-08T02:56:36.078Z,20.60
2022-11-08T02:59:04.236Z,20.50
2022-11-08T03:01:32.727Z,19.00
2022-11-08T03:04:01.094Z,19.80
2022-11-08T03:06:29.167Z,19.10
2022-11-08T03:08:57.232Z,19.90
2022-11-08T03:11:25.212Z,19.40
2022-11-08T03:13:53.179Z,18.70
2022-11-08T03:16:21.197Z,19.60
2022-11-08T03:18:49.305Z,20.00
2022-11-08T03:21:17.480Z,22.30
2022-11-08T03:23:45.800Z,23.00
2022-11-08T03:26:13.927Z,25.00
2022-11-08T03:28:41.949Z,22.30
2022-11-08T03:31:10.690Z,21.00
2022-11-08T03:33:38.821Z,22.30
2022-11-08T03:36:07.682Z,22.90
2022-11-08T03:38:35.716Z,23.20
2022-11-08T03:41:03.891Z,19.80
2022-11-08T03:43:31.862Z,19.80
2022-11-08T03:46:00.036Z,19.10
2022-11-08T03:48:28.612Z,19.50
2022-11-08T03:50:56.680Z,19.20
2022-11-08T03:53:24.752Z,18.80
2022-11-08T03:55:52.923Z,19.10
2022-11-08T03:58:21.351Z,18.40
2022-11-08T04:00:49.505Z,19.10
2022-11-08T04:03:17.543Z,18.90
2022-11-08T04:05:46.911Z,19.00
2022-11-08T04:08:15.304Z,19.40
2022-11-08T04:10:43.588Z,19.40
2022-11-08T04:13:30.173Z,18.80
2022-11-08T04:15:58.344Z,19.00
2022-11-08T04:18:44.612Z,18.90
2022-11-08T04:21:22.047Z,18.90
2022-11-08T04:23:52.389Z,19.30
2022-11-08T04:26:21.900Z,19.40
2022-11-08T04:28:49.950Z,18.90
2022-11-08T04:31:19.978Z,18.30
2022-11-08T04:33:47.970Z,18.70
2022-11-08T04:36:17.219Z,20.30
2022-11-08T04:38:49.712Z,18.40
2022-11-08T04:41:19.745Z,18.60
2022-11-08T04:43:48.533Z,19.00
2022-11-08T04:46:19.009Z,18.20
2022-11-08T04:48:49.785Z,18.20
2022-11-08T04:51:21.260Z,17.50
2022-11-08T04:53:49.848Z,18.20
2022-11-08T04:56:20.140Z,18.00
2022-11-08T04:58:53.593Z,18.00
2022-11-08T05:01:24.717Z,18.00
2022-11-08T05:03:54.388Z,18.40
2022-11-08T05:06:26.146Z,17.80
2022-11-08T05:08:55.710Z,18.60
2022-11-08T05:11:26.297Z,18.50
2022-11-08T05:13:55.391Z,18.10
2022-11-08T05:16:26.108Z,18.10
2022-11-08T05:18:54.774Z,18.30
2022-11-08T05:21:42.621Z,17.90
2022-11-08T05:24:15.196Z,17.50
2022-11-08T05:26:45.530Z,17.70
2022-11-08T05:29:15.460Z,17.80
2022-11-08T05:31:43.815Z,17.50
2022-11-08T05:34:12.004Z,18.80
2022-11-08T05:36:39.977Z,18.60
2022-11-08T05:39:08.000Z,19.00
2022-11-08T05:41:36.197Z,18.70
2022-11-08T05:44:04.269Z,18.80
2022-11-08T05:46:32.337Z,18.60
2022-11-08T05:49:00.352Z,19.50
2022-11-08T05:51:28.568Z,18.90
2022-11-08T05:53:56.542Z,20.00
2022-11-08T05:56:24.621Z,19.40
2022-11-08T05:58:52.793Z,19.70
2022-11-08T06:01:20.965Z,19.10
2022-11-08T06:03:49.344Z,20.10
2022-11-08T06:06:21.017Z,20.00
2022-11-08T06:08:51.564Z,19.00
2022-11-08T06:11:24.410Z,18.80
2022-11-08T06:13:53.917Z,20.20
2022-11-08T06:16:23.542Z,20.20
2022-11-08T06:18:51.903Z,21.30
2022-11-08T06:21:21.716Z,21.00
2022-11-08T06:23:53.890Z,20.20
2022-11-08T06:26:24.303Z,21.20
2022-11-08T06:28:52.335Z,21.80
2022-11-08T06:31:20.306Z,21.80
2022-11-08T06:33:49.289Z,22.00
2022-11-08T06:36:17.503Z,21.60
2022-11-08T06:38:45.599Z,21.60
2022-11-08T06:41:19.380Z,23.30
2022-11-08T06:43:48.225Z,23.20
2022-11-08T06:46:16.490Z,24.10
2022-11-08T06:48:44.743Z,24.10
2022-11-08T06:51:13.101Z,23.50
2022-11-08T06:53:41.336Z,22.20
2022-11-08T06:56:09.442Z,23.30
2022-11-08T06:58:38.378Z,22.70
2022-11-08T07:01:09.024Z,21.10
2022-11-08T07:03:37.544Z,22.60
2022-11-08T07:06:07.154Z,23.30
2022-11-08T07:08:36.043Z,25.80
2022-11-08T07:11:04.419Z,25.40
2022-11-08T07:13:32.495Z,26.50
2022-11-08T07:16:00.815Z,26.90
2022-11-08T07:18:29.745Z,25.30
2022-11-08T07:21:01.756Z,25.30
2022-11-08T07:23:30.440Z,23.70
2022-11-08T07:26:05.958Z,22.40
2022-11-08T07:28:34.016Z,24.20
2022-11-08T07:31:04.648Z,26.90
2022-11-08T07:33:33.063Z,25.10
2022-11-08T07:36:01.246Z,22.40
2022-11-08T07:38:29.313Z,22.00
2022-11-08T07:40:59.835Z,24.30
2022-11-08T07:43:29.357Z,22.80
2022-11-08T07:46:01.491Z,21.00
2022-11-08T07:48:30.868Z,19.30
2022-11-08T07:50:58.982Z,19.70
2022-11-08T07:53:27.128Z,20.00
2022-11-08T07:55:55.489Z,18.20
2022-11-08T07:58:23.546Z,20.40
2022-11-08T08:00:51.632Z,19.50
2022-11-08T08:03:20.107Z,18.50
2022-11-08T08:05:58.217Z,20.70
2022-11-08T08:08:29.746Z,21.80
2022-11-08T08:11:00.027Z,18.90
2022-11-08T08:13:28.549Z,17.50
2022-11-08T08:16:03.304Z,20.10
2022-11-08T08:18:32.087Z,21.70
2022-11-08T08:21:00.159Z,19.50
2022-11-08T08:23:28.639Z,16.00
2022-11-08T08:25:57.017Z,17.80
2022-11-08T08:28:25.090Z,14.20
2022-11-08T08:30:53.096Z,16.20
2022-11-08T08:33:28.287Z,14.10
2022-11-08T08:35:56.974Z,15.10
2022-11-08T08:38:25.126Z,14.00
2022-11-08T08:40:53.676Z,13.00
2022-11-08T08:43:22.505Z,13.70
2022-11-08T08:45:50.671Z,14.50
2022-11-08T08:48:19.071Z,15.00
2022-11-08T08:50:47.262Z,14.80
2022-11-08T08:53:16.376Z,13.30
2022-11-08T08:55:44.817Z,13.20
2022-11-08T08:58:12.808Z,13.50
2022-11-08T09:03:30.101Z,14.40
2022-11-08T09:05:59.203Z,14.30
2022-11-08T09:08:28.057Z,13.50
2022-11-08T09:10:57.723Z,15.70
2022-11-08T09:13:27.440Z,14.40
2022-11-08T09:15:55.590Z,17.20
2022-11-08T09:18:23.725Z,16.30
2022-11-08T09:20:51.946Z,16.60
2022-11-08T09:23:20.312Z,16.40
2022-11-08T09:25:48.639Z,14.10
2022-11-08T09:28:16.814Z,13.30
2022-11-08T09:30:44.851Z,13.30
2022-11-08T09:33:12.928Z,15.60
2022-11-08T09:35:40.980Z,15.90
2022-11-08T09:38:09.069Z,14.10
2022-11-08T09:40:49.027Z,15.10
2022-11-08T09:43:17.220Z,13.30
2022-11-08T09:45:48.014Z,16.20
2022-11-08T09:48:32.257Z,14.00
2022-11-08T09:51:07.110Z,15.60
2022-11-08T09:54:01.529Z,13.50
2022-11-08T09:56:36.216Z,15.10
2022-11-08T09:59:10.114Z,14.70
2022-11-08T10:01:39.000Z,15.00
2022-11-08T10:04:12.126Z,14.80
2022-11-08T10:06:56.845Z,15.30
2022-11-08T10:09:47.981Z,14.20
2022-11-08T10:12:30.428Z,13.90
2022-11-08T10:15:16.960Z,13.00
2022-11-08T10:17:54.438Z,13.00
2022-11-08T10:20:53.046Z,12.90
2022-11-08T10:23:33.400Z,12.60
2022-11-08T10:26:12.632Z,12.30
2022-11-08T10:28:50.457Z,12.00
2022-11-08T10:31:21.418Z,12.20
2022-11-08T10:33:57.423Z,13.40
2022-11-08T10:36:39.147Z,13.00
2022-11-08T10:39:09.961Z,12.60
2022-11-08T10:41:38.433Z,13.00
2022-11-08T10:44:12.853Z,13.60
2022-11-08T10:46:41.540Z,13.30
2022-11-08T10:49:21.142Z,13.40
2022-11-08T10:51:55.076Z,11.30
2022-11-08T10:54:52.068Z,13.60
2022-11-08T10:57:29.317Z,11.90
2022-11-08T11:00:15.511Z,11.10
2022-11-08T11:02:43.789Z,12.20
2022-11-08T11:05:22.201Z,13.80
2022-11-08T11:07:57.408Z,13.40
2022-11-08T11:10:34.866Z,11.70
2022-11-08T11:13:02.899Z,11.30
2022-11-08T11:15:33.123Z,12.90
2022-11-08T11:18:01.915Z,13.80
2022-11-08T11:20:31.408Z,11.10
2022-11-08T11:23:00.707Z,11.90
2022-11-08T11:25:28.885Z,11.10
2022-11-08T11:27:59.462Z,11.70
2022-11-08T11:30:32.802Z,14.10
2022-11-08T11:33:07.233Z,11.40
2022-11-08T11:35:55.584Z,10.70
2022-11-08T11:38:42.145Z,11.90
2022-11-08T11:41:18.735Z,15.00
2022-11-08T11:43:58.855Z,10.60
2022-11-08T11:46:51.720Z,14.80
2022-11-08T11:49:21.783Z,12.60
2022-11-08T11:51:55.202Z,11.20
2022-11-08T11:54:30.192Z,10.90
2022-11-08T11:57:19.566Z,10.20
2022-11-08T11:59:57.956Z,10.20
2022-11-08T12:02:51.473Z,10.50
2022-11-08T12:05:46.022Z,9.70
2022-11-08T12:08:41.403Z,7.70
2022-11-08T12:11:35.306Z,9.90
2022-11-08T12:14:15.307Z,7.70
2022-11-08T12:16:52.523Z,8.10
2022-11-08T12:19:39.534Z,7.30
2022-11-08T12:22:29.634Z,6.70
2022-11-08T12:25:12.576Z,8.70
2022-11-08T12:28:05.010Z,8.00
2022-11-08T12:30:46.023Z,8.10
2022-11-08T12:33:21.027Z,9.20
2022-11-08T12:35:54.929Z,8.00
2022-11-08T12:38:55.166Z,9.90
2022-11-08T12:42:04.328Z,8.30
2022-11-08T12:44:38.538Z,7.20
2022-11-08T12:47:27.510Z,6.50
2022-11-08T12:50:22.608Z,8.30
2022-11-08T12:52:57.971Z,8.50
2022-11-08T12:55:37.449Z,6.20
2022-11-08T12:58:34.383Z,7.00
2022-11-08T13:01:07.958Z,7.90
2022-11-08T13:03:35.904Z,6.70
2022-11-08T13:06:26.653Z,8.40
2022-11-08T13:09:13.391Z,7.60
2022-11-08T13:12:03.456Z,8.10
2022-11-08T13:14:34.979Z,7.40
2022-11-08T13:17:09.326Z,5.90
2022-11-08T13:19:49.685Z,6.90
2022-11-08T13:22:29.742Z,7.70
2022-11-08T13:25:03.259Z,6.20
2022-11-08T13:27:48.609Z,6.10
2022-11-08T13:30:16.577Z,5.90
2022-11-08T13:33:00.012Z,6.40
2022-11-08T13:35:47.564Z,6.30
2022-11-08T13:38:30.744Z,6.50
2022-11-08T13:41:26.062Z,7.30
2022-11-08T13:43:55.523Z,5.80
2022-11-08T13:46:25.889Z,6.60
2022-11-08T13:49:13.940Z,6.40
2022-11-08T13:51:43.004Z,6.90
2022-11-08T13:54:23.212Z,6.00
2022-11-08T13:56:54.331Z,7.00
2022-11-08T13:59:31.493Z,9.90
2022-11-08T14:02:05.600Z,10.50
2022-11-08T14:04:37.343Z,10.30
2022-11-08T14:07:25.396Z,13.10
2022-11-08T14:10:17.767Z,12.40
2022-11-08T14:13:04.473Z,12.20
2022-11-08T14:15:46.779Z,13.90
2022-11-08T14:18:19.346Z,12.70
2022-11-08T14:20:48.261Z,10.80
2022-11-08T14:23:19.657Z,11.40
2022-11-08T14:25:54.894Z,13.00
2022-11-08T14:28:33.538Z,11.50
2022-11-08T14:31:05.004Z,14.50
2022-11-08T14:33:41.722Z,14.80
2022-11-08T14:36:16.366Z,10.90
2022-11-08T14:39:00.333Z,13.20
2022-11-08T14:41:30.512Z,12.30
2022-11-08T14:44:00.570Z,12.90
2022-11-08T14:46:34.521Z,13.40
2022-11-08T14:49:30.392Z,13.70
2022-11-08T14:52:14.184Z,16.30
2022-11-08T14:54:45.455Z,16.80
2022-11-08T14:57:35.885Z,16.60
2022-11-08T15:00:14.743Z,18.10
2022-11-08T15:02:50.960Z,17.20
2022-11-08T15:06:16.267Z,20.70
2022-11-08T15:08:47.036Z,25.10
2022-11-08T15:11:29.081Z,28.40
2022-11-08T15:14:01.953Z,27.60
2022-11-08T15:16:45.321Z,23.50
2022-11-08T15:19:31.592Z,23.20
2022-11-08T15:22:03.088Z,22.20
2022-11-08T15:24:39.790Z,20.20
2022-11-08T15:27:10.675Z,18.60
2022-11-08T15:29:59.493Z,20.70
2022-11-08T15:32:33.639Z,20.10
2022-11-08T15:35:02.620Z,18.80
2022-11-08T15:37:39.008Z,18.20
2022-11-08T15:40:19.885Z,19.90
2022-11-08T15:42:51.219Z,25.50
2022-11-08T15:45:20.832Z,35.10
2022-11-08T15:47:50.175Z,33.80
2022-11-08T15:50:21.162Z,35.10
2022-11-08T15:52:52.244Z,34.00
2022-11-08T15:55:26.845Z,39.50
2022-11-08T15:57:55.846Z,33.20
2022-11-08T16:00:29.945Z,26.60
2022-11-08T16:02:58.846Z,27.00
2022-11-08T16:05:29.551Z,28.10
2022-11-08T16:07:57.896Z,22.90
2022-11-08T16:10:30.580Z,23.40
2022-11-08T16:13:01.140Z,24.50
2022-11-08T16:15:35.149Z,22.60
2022-11-08T16:18:03.443Z,24.60
2022-11-08T16:20:36.588Z,25.10
2022-11-08T16:23:09.948Z,23.10
2022-11-08T16:25:44.261Z,26.30
2022-11-08T16:28:16.771Z,27.10
2022-11-08T16:30:47.074Z,30.80
2022-11-08T16:33:19.492Z,33.70
2022-11-08T16:35:48.801Z,48.50
2022-11-08T16:38:24.232Z,44.80
2022-11-08T16:40:52.610Z,38.00
2022-11-08T16:43:20.684Z,41.40
2022-11-08T16:46:04.910Z,41.10
2022-11-08T16:48:36.755Z,33.90
2022-11-08T16:51:07.197Z,41.60
2022-11-08T16:53:37.036Z,38.20
2022-11-08T16:56:05.136Z,53.40
2022-11-08T16:58:33.195Z,53.80
2022-11-08T17:01:03.856Z,51.90
2022-11-08T17:03:35.797Z,45.60
2022-11-08T17:06:03.833Z,33.60
2022-11-08T17:08:31.858Z,35.20
2022-11-08T17:11:00.997Z,41.30
2022-11-08T17:13:29.070Z,49.10
2022-11-08T17:15:57.023Z,45.40
2022-11-08T17:18:24.999Z,38.30
2022-11-08T17:20:53.995Z,40.50
2022-11-08T17:23:23.471Z,38.80
2022-11-08T17:25:51.570Z,35.70
2022-11-08T17:28:19.801Z,31.10
2022-11-08T17:30:48.121Z,25.40
2022-11-08T17:33:16.444Z,23.90
2022-11-08T17:35:44.838Z,22.60
2022-11-08T17:38:13.875Z,24.20
2022-11-08T17:40:42.511Z,25.60
2022-11-08T17:43:10.744Z,26.90
2022-11-08T17:45:40.025Z,27.40
2022-11-08T17:48:08.061Z,27.40
2022-11-08T17:50:36.172Z,30.60
2022-11-08T17:53:04.083Z,36.80
2022-11-08T17:55:32.102Z,37.90
2022-11-08T17:58:00.102Z,35.00
2022-11-08T18:00:28.310Z,31.60
2022-11-08T18:02:56.417Z,30.30
2022-11-08T18:05:24.696Z,28.80
2022-11-08T18:07:52.764Z,28.70
2022-11-08T18:10:20.775Z,24.80
2022-11-08T18:12:49.112Z,27.80
2022-11-08T18:15:17.285Z,30.10
2022-11-08T18:17:45.214Z,30.30
2022-11-08T18:20:13.343Z,27.90
2022-11-08T18:22:41.392Z,26.50
2022-11-08T18:25:09.527Z,22.50
2022-11-08T18:27:38.970Z,24.10
2022-11-08T18:30:07.583Z,23.90
2022-11-08T18:32:36.473Z,22.10
2022-11-08T18:35:04.988Z,22.80
2022-11-08T18:37:33.088Z,22.70
2022-11-08T18:40:01.058Z,23.10
2022-11-08T18:42:30.461Z,23.80
2022-11-08T18:44:58.630Z,24.70
2022-11-08T18:47:28.608Z,29.40
2022-11-08T18:49:59.692Z,29.40
2022-11-08T18:52:29.028Z,32.90
2022-11-08T18:54:57.079Z,35.00
2022-11-08T18:57:25.131Z,37.40
2022-11-08T18:59:57.225Z,33.40
2022-11-08T19:02:28.952Z,39.40
2022-11-08T19:04:57.538Z,35.10
2022-11-08T19:07:25.601Z,32.90
2022-11-08T19:09:53.780Z,29.60
2022-11-08T19:12:21.804Z,25.80
2022-11-08T19:14:49.832Z,25.60
2022-11-08T19:17:17.783Z,24.60
2022-11-08T19:19:45.768Z,23.70
2022-11-08T19:22:13.817Z,25.10
2022-11-08T19:24:41.887Z,23.80
2022-11-08T19:27:09.900Z,24.60
2022-11-08T19:29:37.808Z,26.80
2022-11-08T19:32:05.841Z,27.00
2022-11-08T19:34:33.815Z,30.10
2022-11-08T19:37:01.832Z,32.60
2022-11-08T19:39:30.287Z,34.00
2022-11-08T19:41:58.383Z,31.50
2022-11-08T19:44:27.479Z,31.90
2022-11-08T19:46:55.655Z,31.80
2022-11-08T19:49:26.445Z,30.60
2022-11-08T19:51:54.417Z,28.80
2022-11-08T19:54:22.730Z,26.20
2022-11-08T19:57:04.028Z,27.40
2022-11-08T19:59:33.717Z,24.80
2022-11-08T20:02:01.816Z,27.30
2022-11-08T20:04:30.165Z,27.50
2022-11-08T20:06:58.198Z,27.90
2022-11-08T20:09:30.564Z,25.80
2022-11-08T20:11:59.237Z,29.70
2022-11-08T20:14:27.341Z,29.90
2022-11-08T20:16:55.952Z,29.30
2022-11-08T20:19:24.377Z,27.70
2022-11-08T20:21:55.863Z,27.30
2022-11-08T20:24:23.991Z,28.20
2022-11-08T20:26:52.118Z,26.50
2022-11-08T20:29:20.091Z,26.00
2022-11-08T20:31:51.869Z,25.10
2022-11-08T20:34:20.608Z,28.50
2022-11-08T20:36:48.688Z,26.70
2022-11-08T20:39:17.217Z,25.70
2022-11-08T20:41:45.413Z,26.20
2022-11-08T20:44:14.795Z,23.70
2022-11-08T20:46:42.907Z,23.30
2022-11-08T20:49:10.999Z,23.90
2022-11-08T20:51:39.012Z,28.40
2022-11-08T20:54:06.997Z,31.00
2022-11-08T20:56:35.010Z,35.90
2022-11-08T20:59:03.408Z,31.10
2022-11-08T21:01:33.090Z,32.60
2022-11-08T21:04:01.902Z,32.20
2022-11-08T21:06:35.272Z,31.60
2022-11-08T21:09:29.989Z,28.60
2022-11-08T21:11:54.079Z,27.30
2022-11-08T21:14:23.932Z,31.10
2022-11-08T21:17:20.864Z,35.10
2022-11-08T21:19:40.792Z,38.00
2022-11-08T21:22:18.482Z,37.10
2022-11-08T21:24:48.535Z,35.00
2022-11-08T21:27:17.416Z,32.90
2022-11-08T21:29:45.559Z,32.30
2022-11-08T21:32:13.744Z,30.50
2022-11-08T21:34:46.188Z,30.80
2022-11-08T21:37:14.796Z,33.50
2022-11-08T21:39:42.800Z,36.00
2022-11-08T21:42:10.929Z,36.70
2022-11-08T21:44:39.188Z,35.60
2022-11-08T21:47:07.446Z,35.10
2022-11-08T21:49:35.393Z,35.10
2022-11-08T21:52:03.771Z,34.70
2022-11-08T21:54:31.754Z,31.30
2022-11-08T21:57:00.074Z,30.80
2022-11-08T21:59:28.091Z,31.10
2022-11-08T22:01:56.103Z,34.80
2022-11-08T22:04:24.018Z,32.80
2022-11-08T22:06:52.563Z,31.10
2022-11-08T22:09:20.729Z,28.60
2022-11-08T22:11:48.739Z,25.80
2022-11-08T22:14:16.882Z,28.10
2022-11-08T22:16:45.459Z,26.90
2022-11-08T22:19:14.014Z,25.50
2022-11-08T22:21:44.562Z,26.00
2022-11-08T22:24:14.659Z,27.60
2022-11-08T22:26:42.856Z,26.50
2022-11-08T22:29:10.930Z,27.80
2022-11-08T22:31:39.741Z,27.50
2022-11-08T22:34:09.096Z,28.80
2022-11-08T22:36:44.526Z,29.60
2022-11-08T22:39:15.243Z,31.40
2022-11-08T22:41:44.997Z,34.10
2022-11-08T22:44:13.780Z,31.60
2022-11-08T22:46:42.886Z,32.80
2022-11-08T22:49:12.390Z,31.70
2022-11-08T22:51:41.480Z,28.40
2022-11-08T22:54:10.165Z,24.70
2022-11-08T22:56:40.423Z,30.20
2022-11-08T22:59:08.871Z,23.20
2022-11-08T23:01:36.996Z,22.90
2022-11-08T23:04:05.057Z,23.60
2022-11-08T23:06:33.095Z,24.70
2022-11-08T23:09:01.101Z,23.60
2022-11-08T23:11:47.650Z,21.10
2022-11-08T23:14:37.500Z,21.50
2022-11-08T23:17:08.084Z,22.20
2022-11-08T23:19:54.523Z,22.40
2022-11-08T23:22:41.508Z,24.90
2022-11-08T23:25:09.747Z,25.50
2022-11-08T23:27:56.399Z,25.50
2022-11-08T23:30:42.986Z,26.20
2022-11-08T23:33:11.545Z,27.10
2022-11-08T23:35:59.623Z,29.90
2022-11-08T23:38:27.610Z,26.10
2022-11-08T23:41:17.529Z,26.30
2022-11-08T23:44:04.644Z,23.80
2022-11-08T23:46:32.719Z,26.00
2022-11-08T23:49:01.484Z,23.10
2022-11-08T23:51:29.471Z,23.00
2022-11-08T23:53:57.758Z,21.70
2022-11-08T23:56:27.770Z,20.20
2022-11-08T23:58:58.910Z,19.60
